createdAt,value
2022-12-29T21:01:06.544Z,7.00
2022-12-29T21:03:40.984Z,8.60
2022-12-29T21:06:16.730Z,8.80
2022-12-29T21:08:44.188Z,8.90
2022-12-29T21:11:12.537Z,9.00
2022-12-29T21:13:40.032Z,9.10
2022-12-29T21:16:09.911Z,9.20
2022-12-29T21:18:37.576Z,9.30
2022-12-29T21:21:14.686Z,9.40
2022-12-29T21:23:42.362Z,9.40
2022-12-29T21:26:16.499Z,9.50
2022-12-29T21:28:47.118Z,9.60
2022-12-29T21:31:36.659Z,9.60
2022-12-29T21:34:06.343Z,9.60
2022-12-29T21:36:34.224Z,9.70
2022-12-29T21:39:03.766Z,9.70
2022-12-29T21:41:32.149Z,9.80
2022-12-29T21:44:18.710Z,9.80
2022-12-29T21:46:47.997Z,9.80
2022-12-29T21:49:16.615Z,9.80
2022-12-29T21:51:57.797Z,9.80
2022-12-29T21:54:46.764Z,9.80
2022-12-29T21:57:37.595Z,9.90
2022-12-29T22:00:26.530Z,9.90
2022-12-29T22:03:20.061Z,9.90
2022-12-29T22:06:09.950Z,9.90
2022-12-29T22:08:56.708Z,10.00
2022-12-29T22:11:42.815Z,9.90
2022-12-29T22:14:10.522Z,9.90
2022-12-29T22:16:38.053Z,9.90
2022-12-29T22:19:05.540Z,9.90
2022-12-29T22:21:32.990Z,9.90
2022-12-29T22:24:00.933Z,9.90
2022-12-29T22:26:28.569Z,9.90
2022-12-29T22:28:56.259Z,9.90
2022-12-29T22:31:28.230Z,9.90
2022-12-29T22:33:57.355Z,9.90
2022-12-29T22:36:26.268Z,9.90
2022-12-29T22:38:54.253Z,9.80
2022-12-29T22:41:22.616Z,9.80
2022-12-29T22:43:50.339Z,9.80
2022-12-29T22:46:17.916Z,9.80
2022-12-29T22:48:45.863Z,9.80
2022-12-29T22:51:14.105Z,9.80
2022-12-29T22:53:41.742Z,9.80
2022-12-29T22:56:14.693Z,9.70
2022-12-29T22:58:46.276Z,9.70
2022-12-29T23:01:18.637Z,9.70
2022-12-29T23:03:46.255Z,9.70
2022-12-29T23:06:16.377Z,9.60
2022-12-29T23:08:48.221Z,9.60
2022-12-29T23:11:15.937Z,9.60
2022-12-29T23:13:45.322Z,9.60
2022-12-29T23:16:13.982Z,9.60
2022-12-29T23:18:42.168Z,9.60
2022-12-29T23:21:10.370Z,9.50
2022-12-29T23:23:56.546Z,9.50
2022-12-29T23:26:47.095Z,9.50
2022-12-29T23:29:19.487Z,9.50
2022-12-29T23:31:47.944Z,9.50
2022-12-29T23:34:16.703Z,9.40
2022-12-29T23:36:44.523Z,9.40
2022-12-29T23:39:19.572Z,9.40
2022-12-29T23:41:47.544Z,9.40
2022-12-29T23:44:15.202Z,9.40
2022-12-29T23:46:42.954Z,9.30
2022-12-29T23:49:10.620Z,9.30
2022-12-29T23:51:38.456Z,9.30
2022-12-29T23:54:06.104Z,9.30
2022-12-29T23:56:33.952Z,9.30
2022-12-29T23:59:05.138Z,9.30
